createdAt,value
2023-01-17T00:01:24.737Z,97425.72
2023-01-17T00:04:09.958Z,97437.59
2023-01-17T00:06:55.240Z,97433.22
2023-01-17T00:09:40.361Z,97434.78
2023-01-17T00:12:07.037Z,97442.69
2023-01-17T00:14:33.595Z,97444.25
2023-01-17T00:17:02.707Z,97444.25
2023-01-17T00:19:48.120Z,97443.88
2023-01-17T00:22:44.121Z,97453.38
2023-01-17T00:25:32.366Z,97445.47
2023-01-17T00:27:58.644Z,97456.59
2023-01-17T00:30:27.888Z,97458.56
2023-01-17T00:32:54.277Z,97458.63
2023-01-17T00:35:22.985Z,97469.31
2023-01-17T00:37:49.274Z,97468.53
2023-01-17T00:40:15.584Z,97472.53
2023-01-17T00:42:41.835Z,97477.72
2023-01-17T00:45:27.113Z,97471.41
2023-01-17T00:48:12.298Z,97473.41
2023-01-17T00:50:57.216Z,97478.22
2023-01-17T00:53:42.652Z,97478.63
2023-01-17T00:56:27.734Z,97488.53
2023-01-17T00:59:13.037Z,97482.22
2023-01-17T01:01:58.317Z,97480.22
2023-01-17T01:04:43.283Z,97494.09
2023-01-17T01:07:28.407Z,97493.66
2023-01-17T01:10:13.424Z,97494.88
2023-01-17T01:12:58.703Z,97496.44
2023-01-17T01:15:43.927Z,97496.00
2023-01-17T01:18:30.621Z,97504.75
2023-01-17T01:21:20.616Z,97511.06
2023-01-17T01:24:05.817Z,97513.06
2023-01-17T01:26:50.638Z,97516.25
2023-01-17T01:29:35.642Z,97509.09
2023-01-17T01:32:20.400Z,97532.47
2023-01-17T01:34:46.616Z,97525.34
2023-01-17T01:37:13.027Z,97537.63
2023-01-17T01:39:39.237Z,97542.78
2023-01-17T01:42:10.530Z,97547.53
2023-01-17T01:44:44.620Z,97550.72
2023-01-17T01:47:12.496Z,97563.78
2023-01-17T01:49:38.792Z,97560.59
2023-01-17T01:52:07.005Z,97561.41
2023-01-17T01:55:09.112Z,97573.66
2023-01-17T01:57:39.076Z,97575.66
2023-01-17T02:00:09.537Z,97572.88
2023-01-17T02:02:35.760Z,97576.06
2023-01-17T02:05:04.516Z,97589.50
2023-01-17T02:07:34.017Z,97596.25
2023-01-17T02:10:00.684Z,97604.56
2023-01-17T02:12:27.327Z,97606.53
2023-01-17T02:14:53.546Z,97612.06
2023-01-17T02:17:34.186Z,97621.94
2023-01-17T02:20:12.898Z,97624.72
2023-01-17T02:22:58.240Z,97635.81
2023-01-17T02:25:51.596Z,97634.22
2023-01-17T02:28:27.237Z,97644.53
2023-01-17T02:31:03.527Z,97646.50
2023-01-17T02:33:52.767Z,97642.94
2023-01-17T02:36:37.929Z,97650.47
2023-01-17T02:39:24.071Z,97661.16
2023-01-17T02:42:02.252Z,97668.28
2023-01-17T02:44:29.727Z,97670.66
2023-01-17T02:46:58.070Z,97669.09
2023-01-17T02:49:27.927Z,97681.78
2023-01-17T02:52:15.638Z,97680.59
2023-01-17T02:54:55.948Z,97685.34
2023-01-17T02:57:31.308Z,97690.91
2023-01-17T03:00:16.746Z,97700.41
2023-01-17T03:02:56.365Z,97701.56
2023-01-17T03:05:37.728Z,97709.09
2023-01-17T03:08:06.399Z,97715.84
2023-01-17T03:10:33.773Z,97726.91
2023-01-17T03:13:00.860Z,97724.53
2023-01-17T03:15:27.098Z,97735.19
2023-01-17T03:17:55.759Z,97741.47
2023-01-17T03:20:22.735Z,97747.00
2023-01-17T03:22:49.087Z,97748.56
2023-01-17T03:25:16.473Z,97748.56
2023-01-17T03:27:43.239Z,97745.00
2023-01-17T03:30:09.797Z,97749.34
2023-01-17T03:32:36.085Z,97760.00
2023-01-17T03:35:02.373Z,97765.91
2023-01-17T03:37:28.694Z,97766.28
2023-01-17T03:39:54.986Z,97765.91
2023-01-17T03:42:21.418Z,97771.00
2023-01-17T03:44:47.688Z,97781.25
2023-01-17T03:47:14.115Z,97793.09
2023-01-17T03:49:40.495Z,97785.56
2023-01-17T03:52:07.206Z,97815.50
2023-01-17T03:54:33.646Z,97818.66
2023-01-17T03:57:00.082Z,97818.56
2023-01-17T03:59:26.510Z,97822.84
2023-01-17T04:01:52.928Z,97824.78
2023-01-17T04:04:19.292Z,97824.31
2023-01-17T04:06:45.743Z,97827.00
2023-01-17T04:09:12.222Z,97832.47
2023-01-17T04:11:38.529Z,97829.69
2023-01-17T04:14:04.758Z,97828.41
2023-01-17T04:16:32.016Z,97836.69
2023-01-17T04:18:58.318Z,97841.38
2023-01-17T04:21:24.711Z,97843.69
2023-01-17T04:23:50.971Z,97848.38
2023-01-17T04:26:17.265Z,97843.63
2023-01-17T04:28:43.536Z,97847.94
2023-01-17T04:31:13.996Z,97850.28
2023-01-17T04:33:40.301Z,97860.13
2023-01-17T04:36:06.615Z,97865.66
2023-01-17T04:38:33.053Z,97856.59
2023-01-17T04:40:59.255Z,97853.47
2023-01-17T04:43:25.788Z,97868.03
2023-01-17T04:45:56.127Z,97871.19
2023-01-17T04:48:22.863Z,97879.09
2023-01-17T04:50:49.139Z,97876.75
2023-01-17T04:53:15.498Z,97881.09
2023-01-17T04:55:45.103Z,97879.56
2023-01-17T04:58:11.351Z,97881.94
2023-01-17T05:00:37.845Z,97886.28
2023-01-17T05:03:04.076Z,97886.28
2023-01-17T05:05:30.828Z,97888.63
2023-01-17T05:07:58.071Z,97892.19
2023-01-17T05:10:24.482Z,97902.06
2023-01-17T05:12:57.631Z,97906.03
2023-01-17T05:15:25.729Z,97910.00
2023-01-17T05:17:52.762Z,97910.84
2023-01-17T05:20:19.929Z,97904.53
2023-01-17T05:22:55.278Z,97914.81
2023-01-17T05:25:25.586Z,97914.88
2023-01-17T05:27:52.075Z,97925.91
2023-01-17T05:30:18.914Z,97927.53
2023-01-17T05:32:48.350Z,97935.84
2023-01-17T05:35:16.399Z,97934.72
2023-01-17T05:37:48.955Z,97941.09
2023-01-17T05:40:16.200Z,97946.25
2023-01-17T05:42:46.368Z,97946.31
2023-01-17T05:45:16.603Z,97945.16
2023-01-17T05:47:43.750Z,97956.63
2023-01-17T05:50:11.255Z,97946.00
2023-01-17T05:52:37.507Z,97951.16
2023-01-17T05:55:04.140Z,97953.94
2023-01-17T05:57:30.431Z,97956.75
2023-01-17T05:59:56.687Z,97961.88
2023-01-17T06:02:23.222Z,97963.88
2023-01-17T06:04:49.702Z,97970.59
2023-01-17T06:07:16.083Z,97971.81
2023-01-17T06:09:42.392Z,97976.94
2023-01-17T06:12:08.655Z,97980.09
2023-01-17T06:14:35.211Z,97980.91
2023-01-17T06:17:01.650Z,97982.13
2023-01-17T06:19:28.085Z,97983.34
2023-01-17T06:21:54.415Z,97982.16
2023-01-17T06:24:20.715Z,97990.44
2023-01-17T06:26:47.013Z,97993.59
2023-01-17T06:29:13.429Z,98004.25
2023-01-17T06:31:39.903Z,98003.09
2023-01-17T06:34:06.243Z,98003.09
2023-01-17T06:36:33.258Z,98009.44
2023-01-17T06:38:59.561Z,98005.88
2023-01-17T06:41:26.126Z,98011.00
2023-01-17T06:43:53.615Z,98015.75
2023-01-17T06:46:20.026Z,98022.84
2023-01-17T06:48:48.221Z,98025.22
2023-01-17T06:51:15.288Z,98021.31
2023-01-17T06:53:42.008Z,98031.97
2023-01-17T06:56:09.130Z,98027.22
2023-01-17T06:58:35.924Z,98030.38
2023-01-17T07:01:05.933Z,98025.22
2023-01-17T07:03:32.365Z,98043.78
2023-01-17T07:06:00.972Z,98044.97
2023-01-17T07:08:27.427Z,98041.78
2023-01-17T07:10:58.076Z,98039.38
2023-01-17T07:13:24.344Z,98042.53
2023-01-17T07:15:51.034Z,98045.31
2023-01-17T07:18:23.291Z,98043.34
2023-01-17T07:20:50.176Z,98045.31
2023-01-17T07:23:17.118Z,98045.31
2023-01-17T07:25:43.457Z,98048.06
2023-01-17T07:28:09.758Z,98061.09
2023-01-17T07:30:36.798Z,98057.53
2023-01-17T07:33:03.136Z,98065.84
2023-01-17T07:35:29.489Z,98061.09
2023-01-17T07:37:55.881Z,98068.22
2023-01-17T07:40:22.825Z,98069.78
2023-01-17T07:42:49.257Z,98070.56
2023-01-17T07:45:16.860Z,98076.09
2023-01-17T07:47:43.129Z,98071.41
2023-01-17T07:50:09.732Z,98074.94
2023-01-17T07:52:36.170Z,98076.53
2023-01-17T07:55:02.426Z,98078.13
2023-01-17T07:57:28.893Z,98077.72
2023-01-17T07:59:55.172Z,98088.41
2023-01-17T08:02:22.265Z,98080.94
2023-01-17T08:04:49.157Z,98078.97
2023-01-17T08:07:15.805Z,98080.16
2023-01-17T08:09:43.229Z,98065.16
2023-01-17T08:12:09.877Z,98071.50
2023-01-17T08:14:36.664Z,98068.34
2023-01-17T08:17:16.478Z,98071.13
2023-01-17T08:19:43.237Z,98067.19
2023-01-17T08:22:09.722Z,98066.38
2023-01-17T08:24:36.140Z,98066.78
2023-01-17T08:27:02.435Z,98075.50
2023-01-17T08:29:30.251Z,98075.91
2023-01-17T08:31:57.666Z,98076.31
2023-01-17T08:34:24.085Z,98066.47
2023-01-17T08:36:51.977Z,98072.03
2023-01-17T08:39:18.970Z,98069.28
2023-01-17T08:41:45.500Z,98067.72
2023-01-17T08:44:11.949Z,98070.50
2023-01-17T08:46:38.868Z,98079.63
2023-01-17T08:49:05.174Z,98081.22
2023-01-17T08:51:32.703Z,98082.44
2023-01-17T08:53:59.162Z,98078.47
2023-01-17T08:56:26.227Z,98085.19
2023-01-17T08:58:52.867Z,98085.63
2023-01-17T09:01:19.424Z,98088.38
2023-01-17T09:03:48.240Z,98094.75
2023-01-17T09:06:15.237Z,98089.22
2023-01-17T09:08:41.972Z,98094.78
2023-01-17T09:11:09.795Z,98084.13
2023-01-17T09:13:36.377Z,98097.59
2023-01-17T09:16:02.963Z,98094.09
2023-01-17T09:18:29.854Z,98098.06
2023-01-17T09:20:59.092Z,98098.09
2023-01-17T09:23:26.879Z,98098.53
2023-01-17T09:25:57.287Z,98097.34
2023-01-17T09:28:23.877Z,98098.13
2023-01-17T09:30:50.174Z,98103.25
2023-01-17T09:33:17.839Z,98107.66
2023-01-17T09:35:44.683Z,98101.28
2023-01-17T09:38:11.054Z,98108.44
2023-01-17T09:40:41.721Z,98114.75
2023-01-17T09:43:14.991Z,98116.72
2023-01-17T09:45:41.353Z,98123.09
2023-01-17T09:48:10.836Z,98124.28
2023-01-17T09:50:50.552Z,98132.19
2023-01-17T09:53:20.741Z,98129.03
2023-01-17T09:55:48.725Z,98131.03
2023-01-17T09:58:20.163Z,98130.66
2023-01-17T10:00:58.034Z,98139.75
2023-01-17T10:03:37.421Z,98134.59
2023-01-17T10:06:12.422Z,98135.81
2023-01-17T10:08:41.438Z,98137.00
2023-01-17T10:11:16.782Z,98135.00
2023-01-17T10:14:01.867Z,98146.50
2023-01-17T10:16:46.091Z,98136.22
2023-01-17T10:19:12.480Z,98136.19
2023-01-17T10:22:02.210Z,98135.41
2023-01-17T10:24:45.875Z,98128.25
2023-01-17T10:27:18.674Z,98128.22
2023-01-17T10:29:47.925Z,98136.09
2023-01-17T10:32:14.516Z,98131.41
2023-01-17T10:34:45.018Z,98129.81
2023-01-17T10:37:17.907Z,98126.66
2023-01-17T10:39:46.078Z,98122.75
2023-01-17T10:42:24.012Z,98123.94
2023-01-17T10:45:03.965Z,98120.00
2023-01-17T10:47:33.214Z,98130.28
2023-01-17T10:50:03.591Z,98132.69
2023-01-17T10:52:36.213Z,98126.38
2023-01-17T10:55:13.914Z,98126.81
2023-01-17T10:57:42.749Z,98128.00
2023-01-17T11:00:25.491Z,98130.00
2023-01-17T11:02:52.130Z,98123.25
2023-01-17T11:05:21.898Z,98123.66
2023-01-17T11:07:59.252Z,98124.06
2023-01-17T11:10:35.548Z,98119.72
2023-01-17T11:13:02.746Z,98114.19
2023-01-17T11:15:31.909Z,98118.56
2023-01-17T11:18:03.172Z,98122.53
2023-01-17T11:20:29.513Z,98120.16
2023-01-17T11:23:14.652Z,98124.16
2023-01-17T11:25:48.535Z,98118.22
2023-01-17T11:28:22.247Z,98115.47
2023-01-17T11:31:13.589Z,98129.72
2023-01-17T11:33:50.292Z,98130.91
2023-01-17T11:36:30.469Z,98129.72
2023-01-17T11:38:57.804Z,98123.41
2023-01-17T11:41:25.266Z,98117.44
2023-01-17T11:43:51.789Z,98128.13
2023-01-17T11:46:20.603Z,98130.09
2023-01-17T11:48:49.743Z,98122.19
2023-01-17T11:51:28.073Z,98130.88
2023-01-17T11:53:55.803Z,98127.31
2023-01-17T11:56:23.011Z,98114.25
2023-01-17T11:58:51.217Z,98117.03
2023-01-17T12:01:23.584Z,98114.28
2023-01-17T12:03:49.917Z,98107.97
2023-01-17T12:06:19.359Z,98103.19
2023-01-17T12:08:56.094Z,98097.28
2023-01-17T12:11:22.561Z,98102.41
2023-01-17T12:14:01.050Z,98092.91
2023-01-17T12:16:42.892Z,98095.69
2023-01-17T12:19:12.323Z,98092.13
2023-01-17T12:21:38.734Z,98090.91
2023-01-17T12:24:05.134Z,98091.72
2023-01-17T12:26:40.187Z,98098.47
2023-01-17T12:29:25.407Z,98096.06
2023-01-17T12:32:00.798Z,98085.78
2023-01-17T12:34:38.782Z,98081.44
2023-01-17T12:37:23.985Z,98090.16
2023-01-17T12:39:59.023Z,98089.38
2023-01-17T12:42:31.589Z,98093.31
2023-01-17T12:45:09.680Z,98100.06
2023-01-17T12:47:39.576Z,98090.56
2023-01-17T12:50:12.313Z,98088.19
2023-01-17T12:52:45.225Z,98100.06
2023-01-17T12:55:18.195Z,98097.69
2023-01-17T12:57:47.929Z,98097.31
2023-01-17T13:00:19.728Z,98097.28
2023-01-17T13:02:59.247Z,98093.72
2023-01-17T13:05:35.851Z,98098.84
2023-01-17T13:08:20.800Z,98102.41
2023-01-17T13:10:56.431Z,98092.91
2023-01-17T13:13:25.444Z,98097.25
2023-01-17T13:15:57.536Z,98092.91
2023-01-17T13:18:29.821Z,98095.28
2023-01-17T13:21:06.032Z,98089.31
2023-01-17T13:23:55.943Z,98102.41
2023-01-17T13:26:41.398Z,98094.06
2023-01-17T13:29:26.477Z,98093.25
2023-01-17T13:32:05.914Z,98102.00
2023-01-17T13:34:47.702Z,98098.81
2023-01-17T13:37:32.487Z,98091.69
2023-01-17T13:40:05.162Z,98095.66
2023-01-17T13:42:42.962Z,98095.25
2023-01-17T13:45:17.665Z,98096.81
2023-01-17T13:47:44.082Z,98091.69
2023-01-17T13:50:29.383Z,98095.66
2023-01-17T13:52:57.913Z,98092.50
2023-01-17T13:55:42.704Z,98091.69
2023-01-17T13:58:26.799Z,98090.47
2023-01-17T14:00:54.945Z,98094.88
2023-01-17T14:03:40.574Z,98096.81
2023-01-17T14:06:26.789Z,98092.47
2023-01-17T14:08:53.256Z,98089.31
2023-01-17T14:11:22.076Z,98098.44
2023-01-17T14:13:51.574Z,98092.09
2023-01-17T14:16:20.934Z,98104.78
2023-01-17T14:18:47.567Z,98103.56
2023-01-17T14:21:27.939Z,98102.38
2023-01-17T14:23:54.211Z,98103.56
2023-01-17T14:26:41.943Z,98097.63
2023-01-17T14:29:29.619Z,98098.81
2023-01-17T14:32:05.498Z,98099.63
2023-01-17T14:34:31.833Z,98101.19
2023-01-17T14:37:06.439Z,98105.59
2023-01-17T14:39:42.973Z,98107.56
2023-01-17T14:42:12.419Z,98107.97
2023-01-17T14:44:38.712Z,98104.03
2023-01-17T14:47:05.579Z,98108.41
2023-01-17T14:49:31.844Z,98109.59
2023-01-17T14:52:06.347Z,98106.38
2023-01-17T14:54:33.187Z,98106.00
2023-01-17T14:57:16.250Z,98110.38
2023-01-17T14:59:42.784Z,98110.38
2023-01-17T15:02:13.455Z,98112.34
2023-01-17T15:04:40.675Z,98109.56
2023-01-17T15:07:07.542Z,98116.28
2023-01-17T15:09:35.954Z,98113.91
2023-01-17T15:12:05.309Z,98115.47
2023-01-17T15:14:34.268Z,98121.41
2023-01-17T15:17:10.827Z,98124.16
2023-01-17T15:19:44.585Z,98122.97
2023-01-17T15:22:11.582Z,98119.78
2023-01-17T15:24:41.586Z,98122.16
2023-01-17T15:27:11.832Z,98118.56
2023-01-17T15:29:40.242Z,98118.16
2023-01-17T15:32:07.453Z,98120.53
2023-01-17T15:34:35.640Z,98126.44
2023-01-17T15:37:22.569Z,98130.00
2023-01-17T15:39:48.949Z,98126.00
2023-01-17T15:42:28.470Z,98131.53
2023-01-17T15:44:56.755Z,98131.09
2023-01-17T15:47:28.406Z,98135.38
2023-01-17T15:49:54.782Z,98136.56
2023-01-17T15:52:21.724Z,98135.34
2023-01-17T15:54:52.790Z,98132.56
2023-01-17T15:57:32.437Z,98128.19
2023-01-17T16:00:16.015Z,98133.72
2023-01-17T16:02:43.362Z,98140.78
2023-01-17T16:05:22.806Z,98137.56
2023-01-17T16:07:50.270Z,98138.38
2023-01-17T16:10:18.652Z,98140.31
2023-01-17T16:12:45.617Z,98135.13
2023-01-17T16:15:13.550Z,98133.13
2023-01-17T16:17:42.486Z,98129.53
2023-01-17T16:20:15.704Z,98134.25
2023-01-17T16:22:43.937Z,98133.81
2023-01-17T16:25:14.312Z,98131.84
2023-01-17T16:27:43.004Z,98134.16
2023-01-17T16:30:10.649Z,98150.31
2023-01-17T16:32:36.886Z,98145.13
2023-01-17T16:35:03.245Z,98156.53
2023-01-17T16:37:29.504Z,98152.56
2023-01-17T16:39:55.733Z,98154.09
2023-01-17T16:42:22.342Z,98160.34
2023-01-17T16:44:48.851Z,98153.59
2023-01-17T16:47:15.130Z,98159.47
2023-01-17T16:49:41.424Z,98164.53
2023-01-17T16:52:07.847Z,98171.22
2023-01-17T16:54:34.589Z,98176.66
2023-01-17T16:57:00.838Z,98179.34
2023-01-17T16:59:34.562Z,98180.06
2023-01-17T17:02:09.699Z,98175.25
2023-01-17T17:04:35.997Z,98178.34
2023-01-17T17:07:02.430Z,98186.19
2023-01-17T17:09:28.763Z,98188.88
2023-01-17T17:11:55.384Z,98192.78
2023-01-17T17:14:21.869Z,98191.94
2023-01-17T17:16:51.651Z,98191.84
2023-01-17T17:19:18.244Z,98189.00
2023-01-17T17:21:44.588Z,98192.50
2023-01-17T17:24:12.347Z,98189.72
2023-01-17T17:26:39.144Z,98197.94
2023-01-17T17:29:05.969Z,98190.00
2023-01-17T17:31:32.740Z,98199.00
2023-01-17T17:34:00.874Z,98196.97
2023-01-17T17:36:27.565Z,98197.31
2023-01-17T17:38:54.963Z,98205.56
2023-01-17T17:41:28.677Z,98201.50
2023-01-17T17:43:55.400Z,98198.72
2023-01-17T17:46:22.671Z,98200.63
2023-01-17T17:48:49.478Z,98206.47
2023-01-17T17:51:28.027Z,98204.81
2023-01-17T17:53:55.416Z,98209.47
2023-01-17T17:56:22.870Z,98219.63
2023-01-17T17:58:49.623Z,98218.44
2023-01-17T18:01:16.247Z,98213.66
2023-01-17T18:03:42.606Z,98212.78
2023-01-17T18:06:10.497Z,98206.88
2023-01-17T18:08:37.868Z,98219.41
2023-01-17T18:11:05.909Z,98221.75
2023-01-17T18:13:32.937Z,98225.69
2023-01-17T18:16:02.615Z,98227.19
2023-01-17T18:18:31.241Z,98232.66
2023-01-17T18:21:25.012Z,98236.94
2023-01-17T18:23:54.560Z,98232.16
2023-01-17T18:26:28.070Z,98238.41
2023-01-17T18:28:56.646Z,98240.72
2023-01-17T18:31:30.060Z,98240.31
2023-01-17T18:33:57.965Z,98244.16
2023-01-17T18:36:24.876Z,98244.50
2023-01-17T18:38:51.769Z,98250.78
2023-01-17T18:41:19.972Z,98259.41
2023-01-17T18:43:48.441Z,98270.00
2023-01-17T18:46:15.527Z,98265.19
2023-01-17T18:48:41.884Z,98274.22
2023-01-17T18:51:10.006Z,98274.16
2023-01-17T18:53:38.810Z,98270.97
2023-01-17T18:56:06.572Z,98268.50
2023-01-17T18:58:36.664Z,98275.91
2023-01-17T19:01:11.560Z,98280.16
2023-01-17T19:03:38.934Z,98270.63
2023-01-17T19:06:05.972Z,98276.50
2023-01-17T19:08:35.464Z,98286.69
2023-01-17T19:11:04.735Z,98279.16
2023-01-17T19:13:32.520Z,98277.56
2023-01-17T19:16:01.875Z,98279.53
2023-01-17T19:18:28.396Z,98292.47
2023-01-17T19:20:54.902Z,98291.69
2023-01-17T19:23:21.688Z,98290.09
2023-01-17T19:25:52.660Z,98293.66
2023-01-17T19:28:19.905Z,98296.41
2023-01-17T19:30:46.207Z,98295.59
2023-01-17T19:33:12.469Z,98284.59
2023-01-17T19:35:39.122Z,98292.06
2023-01-17T19:38:07.695Z,98289.31
2023-01-17T19:40:33.975Z,98297.56
2023-01-17T19:43:02.352Z,98296.78
2023-01-17T19:45:30.695Z,98299.06
2023-01-17T19:47:57.410Z,98304.94
2023-01-17T19:50:24.136Z,98310.03
2023-01-17T19:52:53.007Z,98307.28
2023-01-17T19:55:25.637Z,98307.19
2023-01-17T19:57:52.562Z,98302.06
2023-01-17T20:00:24.042Z,98304.38
2023-01-17T20:02:53.587Z,98310.25
2023-01-17T20:05:21.239Z,98309.81
2023-01-17T20:07:47.857Z,98316.47
2023-01-17T20:10:14.199Z,98321.53
2023-01-17T20:12:40.601Z,98318.69
2023-01-17T20:15:07.422Z,98319.44
2023-01-17T20:17:36.211Z,98320.94
2023-01-17T20:20:06.181Z,98325.19
2023-01-17T20:22:33.736Z,98327.16
2023-01-17T20:25:00.943Z,98320.44
2023-01-17T20:27:31.238Z,98324.69
2023-01-17T20:30:05.365Z,98321.94
2023-01-17T20:32:41.936Z,98325.06
2023-01-17T20:35:08.956Z,98324.25
2023-01-17T20:37:35.289Z,98327.00
2023-01-17T20:40:02.016Z,98335.25
2023-01-17T20:42:28.764Z,98338.38
2023-01-17T20:44:55.381Z,98336.75
2023-01-17T20:47:21.709Z,98342.28
2023-01-17T20:49:49.772Z,98344.22
2023-01-17T20:52:16.493Z,98343.78
2023-01-17T20:54:43.381Z,98346.88
2023-01-17T20:57:10.651Z,98361.00
2023-01-17T20:59:37.085Z,98364.50
2023-01-17T21:02:03.462Z,98363.25
2023-01-17T21:04:30.173Z,98366.00
2023-01-17T21:06:57.448Z,98374.63
2023-01-17T21:09:23.821Z,98364.75
2023-01-17T21:11:50.545Z,98363.16
2023-01-17T21:14:16.830Z,98367.06
2023-01-17T21:16:43.360Z,98367.84
2023-01-17T21:19:11.751Z,98379.22
2023-01-17T21:21:39.520Z,98378.44
2023-01-17T21:24:06.127Z,98385.09
2023-01-17T21:26:32.906Z,98381.53
2023-01-17T21:29:00.405Z,98379.59
2023-01-17T21:31:28.684Z,98378.06
2023-01-17T21:33:55.119Z,98377.69
2023-01-17T21:36:23.057Z,98388.81
2023-01-17T21:38:56.722Z,98386.06
2023-01-17T21:41:25.521Z,98384.56
2023-01-17T21:43:55.838Z,98386.16
2023-01-17T21:46:22.393Z,98384.19
2023-01-17T21:48:48.699Z,98384.19
2023-01-17T21:51:15.255Z,98386.94
2023-01-17T21:53:41.478Z,98394.41
2023-01-17T21:56:29.071Z,98392.00
2023-01-17T21:58:56.746Z,98393.50
2023-01-17T22:01:24.934Z,98399.38
2023-01-17T22:03:54.585Z,98402.47
2023-01-17T22:06:22.033Z,98400.50
2023-01-17T22:08:48.398Z,98398.91
2023-01-17T22:11:15.825Z,98403.19
2023-01-17T22:13:42.941Z,98400.78
2023-01-17T22:16:13.796Z,98403.09
2023-01-17T22:18:40.563Z,98410.09
2023-01-17T22:21:08.363Z,98398.66
2023-01-17T22:23:35.101Z,98398.22
2023-01-17T22:26:06.324Z,98406.81
2023-01-17T22:28:33.057Z,98409.50
2023-01-17T22:31:13.560Z,98409.41
2023-01-17T22:33:41.640Z,98413.66
2023-01-17T22:36:08.685Z,98418.25
2023-01-17T22:38:35.582Z,98422.16
2023-01-17T22:41:10.011Z,98423.31
2023-01-17T22:43:37.956Z,98425.28
2023-01-17T22:46:05.591Z,98421.72
2023-01-17T22:48:33.071Z,98427.56
2023-01-17T22:51:02.310Z,98429.47
2023-01-17T22:53:28.969Z,98430.63
2023-01-17T22:56:05.542Z,98426.28
2023-01-17T22:58:32.198Z,98428.25
2023-01-17T23:01:07.233Z,98425.88
2023-01-17T23:03:33.830Z,98425.88
2023-01-17T23:06:10.553Z,98429.75
2023-01-17T23:08:37.177Z,98426.19
2023-01-17T23:11:25.983Z,98420.25
2023-01-17T23:13:52.872Z,98424.16
2023-01-17T23:16:37.559Z,98423.69
2023-01-17T23:19:22.227Z,98422.81
2023-01-17T23:22:08.345Z,98424.69
2023-01-17T23:24:34.876Z,98426.53
2023-01-17T23:27:19.880Z,98429.97
2023-01-17T23:29:46.300Z,98440.88
2023-01-17T23:32:12.816Z,98437.69
2023-01-17T23:34:39.307Z,98434.13
2023-01-17T23:37:05.729Z,98433.66
2023-01-17T23:39:32.007Z,98433.66
2023-01-17T23:42:16.807Z,98422.59
2023-01-17T23:44:43.149Z,98429.59
2023-01-17T23:47:09.395Z,98431.91
2023-01-17T23:49:35.675Z,98428.69
2023-01-17T23:52:02.227Z,98427.09
2023-01-17T23:54:28.511Z,98426.66
2023-01-17T23:56:54.796Z,98427.34
2023-01-17T23:59:21.247Z,98418.66
